Flight Track Log - Related Links

Times and Time Zones

All times are in EDT time to prevent confusion due to time zone crossing. See the SWA3497 flight status page for this flight to view local times or setup timezone preferences in your user account.

Time Position Orientation Groundspeed Altitude Reporting Facility
EDT Latitude Longitude Course Direction KTS MPH feet Rate Location/Type
Fri 02:16:59 PM 38.0944 -85.7194 106° East 221 254 4,400  Level Indianapolis Center
Fri 02:18:00 PM 38.0733 -85.6283 106° East 272 313 7,600 3,122 Climbing Indianapolis Center
Fri 02:19:02 PM 38.0767 -85.5319 87° East 275 316 10,800 3,145 Climbing Indianapolis Center
Fri 02:20:04 PM 38.0831 -85.4119 86° East 335 386 14,100 3,252 Climbing Indianapolis Center
Fri 02:20:49 PM 38.0872 -85.3103 87° East 355 409 16,600 2,774 Climbing Indianapolis Center
Fri 02:21:50 PM 38.1000 -85.1728 83° East 380 437 19,000 2,488 Climbing Indianapolis Center
Fri 02:22:52 PM 38.1136 -85.0317 83° East 399 459 21,700 2,341 Climbing Indianapolis Center
Fri 02:23:53 PM 38.1256 -84.8831 84° East 418 481 23,800 2,049 Climbing Indianapolis Center
Fri 02:24:55 PM 38.1411 -84.7239 83° East 445 512 25,900 1,561 Climbing Indianapolis Center
Fri 02:25:56 PM 38.1553 -84.5575 84° East 466 536 27,000 1,366 Climbing Indianapolis Center
Fri 02:26:58 PM 38.1689 -84.3861 84° East 480 552 28,700 1,659 Climbing Indianapolis Center
Fri 02:27:59 PM 38.1819 -84.2103 85° East 494 568 30,400 1,707 Climbing Indianapolis Center
Fri 02:29:01 PM 38.1969 -84.0292 84° East 508 585 32,200 1,742 Climbing Indianapolis Center
Fri 02:30:03 PM 38.2122 -83.8178 85° East 512 589 34,000 1,645 Climbing Indianapolis Center
Fri 02:31:05 PM 38.2264 -83.6378 84° East 513 590 35,600 1,463 Climbing Indianapolis Center
Fri 02:32:06 PM 38.2386 -83.4553 85° East 515 593 37,000 683 Climbing Indianapolis Center
Fri 02:33:08 PM 38.2531 -83.2753 84° East 511 588 37,000  Level Indianapolis Center
Fri 02:34:10 PM 38.2653 -83.0958 85° East 507 583 37,000  Level Indianapolis Center
Fri 02:35:12 PM 38.2769 -82.9169 85° East 506 582 37,000 774 Level Indianapolis Center
Fri 02:36:14 PM 38.2883 -82.7364 85° East 510 587 38,600 968 Climbing Indianapolis Center
Fri 02:37:16 PM 38.3022 -82.5289 85° East 504 580 39,000 195 Climbing Indianapolis Center
Fri 02:38:17 PM 38.3142 -82.3489 85° East 508 585 39,000  Level Indianapolis Center
Fri 02:39:20 PM 38.3256 -82.1722 85° East 502 578 39,000  Level Indianapolis Center
Fri 02:40:21 PM 38.3372 -81.9981 85° East 497 572 39,000  Level Indianapolis Center
Fri 02:41:23 PM 38.3472 -81.8228 86° East 499 574 39,000  Level Indianapolis Center
Fri 02:42:25 PM 38.3458 -81.6469 91° East 503 579 39,000  Level Indianapolis Center
Fri 02:43:27 PM 38.3397 -81.4367 92° East 502 578 39,000  Level Indianapolis Center
Fri 02:44:29 PM 38.3344 -81.2628 92° East 498 573 39,000  Level Indianapolis Center
Fri 02:45:31 PM 38.3272 -81.0886 93° East 497 572 39,000  Level Indianapolis Center
Fri 02:46:06 PM 38.3231 -80.9858 93° East 498 573 39,000  Level Washington Center
Fri 02:47:07 PM 38.3161 -80.8106 93° East 498 573 39,000  Level Washington Center
Fri 02:48:07 PM 38.3111 -80.6356 92° East 498 573 39,000 -353 Level Washington Center
Fri 02:49:06 PM 38.3217 -80.4828 85° East 498 573 38,300 -807 Descending Washington Center
Fri 02:50:06 PM 38.3453 -80.3122 80° East 487 560 37,400 -645 Descending Washington Center
Fri 02:51:07 PM 38.3686 -80.1389 80° East 493 567 37,000 -198 Descending Washington Center
Fri 02:52:07 PM 38.3897 -79.9653 81° East 493 567 37,000  Level Washington Center
Fri 02:53:05 PM 38.4153 -79.7733 80° East 500 575 37,000  Level Washington Center
Fri 02:54:06 PM 38.4381 -79.5997 80° East 500 575 37,000  Level Washington Center
Fri 02:55:06 PM 38.4603 -79.4258 81° East 500 575 37,000 -843 Level Washington Center
Fri 02:56:07 PM 38.4825 -79.2519 81° East 500 575 35,300 -2,331 Descending Washington Center
Fri 02:57:07 PM 38.5044 -79.0753 81° East 500 575 32,300 -2,847 Descending Washington Center
Fri 02:58:05 PM 38.5233 -78.9169 81° East 500 575 29,700 -2,644 Descending Washington Center
Fri 02:59:05 PM 38.5453 -78.7242 82° East 500 575 27,100 -1,328 Descending Washington Center
Fri 03:00:07 PM 38.5642 -78.5575 82° East 484 557 27,000 -246 Descending Washington Center
Fri 03:01:07 PM 38.5803 -78.4014 82° East 464 534 26,600 -1,373 Descending Washington Center
Fri 03:02:05 PM 38.5986 -78.2403 82° East 458 527 24,300 -2,288 Descending Washington Center
Fri 03:03:05 PM 38.6164 -78.0894 81° East 448 516 22,100 -2,164 Descending Washington Center
Fri 03:04:07 PM 38.6319 -77.9411 82° East 425 489 19,900 -1,550 Descending Washington Center
Fri 03:05:05 PM 38.6450 -77.7978 83° East 415 478 19,000 -458 Descending Washington Center
Fri 03:06:05 PM 38.6539 -77.6547 85° East 404 465 19,000 -217 Level Washington Center
Fri 03:06:28 PM 38.6500 -77.6000 95° East 401 461 18,700 -1,229 Descending Potomac TRACON
Fri 03:07:28 PM 38.6667 -77.4500 82° East 385 443 17,300 -1,357 Descending Potomac TRACON
Fri 03:08:23 PM 38.6667 -77.3333 90° East 383 441 16,100 -1,409 Descending Potomac TRACON
Fri 03:09:23 PM 38.6833 -77.2000 81° East 372 428 14,600 -1,714 Descending Potomac TRACON
Fri 03:10:29 PM 38.6833 -77.0500 90° East 363 418 12,500 -1,984 Descending Potomac TRACON
Fri 03:11:30 PM 38.7000 -76.9333 80° East 361 415 10,400 -1,438 Descending Potomac TRACON
Fri 03:12:05 PM 38.6981 -76.8658 92° East 356 410 10,200 -884 Descending Washington Center
Fri 03:13:05 PM 38.7033 -76.7542 86° East 328 377 9,000 -1,110 Descending Washington Center
Fri 03:14:31 PM 38.7667 -76.6167 59° Northeast 282 325 7,500 -1,192 Descending Potomac TRACON
Fri 03:15:31 PM 38.8000 -76.5333 63° Northeast 278 320 6,100 -1,461 Descending Potomac TRACON
Fri 03:16:26 PM 38.8667 -76.5333 360° North 259 298 4,700 -1,140 Descending Potomac TRACON
Fri 03:17:32 PM 38.9333 -76.5500 349° North 240 276 3,800 -520 Descending Potomac TRACON
Fri 03:18:33 PM 39.0000 -76.5833 339° North 216 249 3,600 -595 Descending Potomac TRACON
Fri 03:19:33 PM 39.0500 -76.6000 345° North 201 231 2,600 -1,000 Descending Potomac TRACON
Fri 03:20:33 PM 39.1000 -76.6167 345° North 175 201 1,600 -900 Descending Potomac TRACON
Fri 03:21:33 PM 39.1333 -76.6333 339° North 138 159 800 -800 Descending Potomac TRACON
Fri 03:23:00 PM 39.1667 -76.6667 339° North  Level FlightAware Approximate
Fri 03:30:00 PM 39.1754 -76.6683 339° North  Level Estimated
Fri 03:31:00 PM 39.1754 -76.6683 339° North  Level Estimated
Fri 03:32:00 PM 39.1754 -76.6683 339° North  Level Estimated
Fri 03:33:00 PM 39.1754 -76.6683 339° North  Level Estimated
Fri 03:34:00 PM 39.1754 -76.6683 339° North  Level Estimated

Login

Don't have an account? Register now (free) for customized features, flight alerts, and more!